createdAt,value
2023-02-09T00:01:39.187Z,0.98
2023-02-09T00:04:08.186Z,1.30
2023-02-09T00:06:37.160Z,1.00
2023-02-09T00:09:06.510Z,1.25
2023-02-09T00:11:51.766Z,0.52
2023-02-09T00:14:25.902Z,1.10
2023-02-09T00:16:53.255Z,0.82
2023-02-09T00:19:22.242Z,0.52
2023-02-09T00:21:49.332Z,0.63
2023-02-09T00:24:16.067Z,1.15
2023-02-09T00:26:46.076Z,1.30
2023-02-09T00:29:14.414Z,1.25
2023-02-09T00:31:47.494Z,1.03
2023-02-09T00:34:17.290Z,1.00
2023-02-09T00:36:44.629Z,1.40
2023-02-09T00:39:11.405Z,1.52
2023-02-09T00:41:59.949Z,0.50
2023-02-09T00:44:26.605Z,0.82
2023-02-09T00:46:53.390Z,0.95
2023-02-09T00:49:26.576Z,1.92
2023-02-09T00:51:53.899Z,0.97
2023-02-09T00:54:27.681Z,1.13
2023-02-09T00:56:54.331Z,1.30
2023-02-09T00:59:21.097Z,0.80
2023-02-09T01:01:50.110Z,0.75
2023-02-09T01:04:16.805Z,1.15
2023-02-09T01:09:38.784Z,1.58
2023-02-09T01:12:09.504Z,0.98
2023-02-09T01:14:43.881Z,0.80
2023-02-09T01:20:01.294Z,1.33
2023-02-09T01:22:28.189Z,1.10
2023-02-09T01:24:54.947Z,1.30
2023-02-09T01:27:24.535Z,1.17
2023-02-09T01:29:51.285Z,1.33
2023-02-09T01:35:12.881Z,0.73
2023-02-09T01:37:39.692Z,1.35
2023-02-09T01:40:07.054Z,1.30
2023-02-09T01:42:36.894Z,0.57
2023-02-09T01:45:28.847Z,1.00
2023-02-09T01:48:00.373Z,1.33
2023-02-09T01:50:31.639Z,0.75
2023-02-09T01:52:58.383Z,0.70
2023-02-09T01:55:28.416Z,0.77
2023-02-09T01:58:07.176Z,1.00
2023-02-09T02:00:34.191Z,1.10
2023-02-09T02:03:08.702Z,1.70
2023-02-09T02:05:39.055Z,1.00
2023-02-09T02:08:22.336Z,1.23
2023-02-09T02:10:49.531Z,0.98
2023-02-09T02:13:16.322Z,0.93
2023-02-09T02:16:04.723Z,1.33
2023-02-09T02:18:50.630Z,1.05
2023-02-09T02:21:45.989Z,1.13
2023-02-09T02:24:33.878Z,1.20
2023-02-09T02:27:08.733Z,1.02
2023-02-09T02:30:03.996Z,1.60
2023-02-09T02:32:47.324Z,1.67
2023-02-09T02:35:33.102Z,0.95
2023-02-09T02:38:16.334Z,1.27
2023-02-09T02:41:02.604Z,1.15
2023-02-09T02:44:07.558Z,1.37
2023-02-09T02:46:46.638Z,1.17
2023-02-09T02:49:32.134Z,0.80
2023-02-09T02:52:04.052Z,1.02
2023-02-09T02:54:38.363Z,0.60
2023-02-09T02:57:10.395Z,0.93
2023-02-09T02:59:43.909Z,1.48
2023-02-09T03:02:16.239Z,1.10
2023-02-09T03:04:45.284Z,1.67
2023-02-09T03:07:11.980Z,1.17
2023-02-09T03:09:48.788Z,1.33
2023-02-09T03:13:02.265Z,0.80
2023-02-09T03:15:35.158Z,1.27
2023-02-09T03:18:30.231Z,1.13
2023-02-09T03:21:04.509Z,0.82
2023-02-09T03:23:45.246Z,0.77
2023-02-09T03:26:22.900Z,0.70
2023-02-09T03:28:56.609Z,0.50
2023-02-09T03:31:24.756Z,0.57
2023-02-09T03:33:52.210Z,1.30
2023-02-09T03:36:22.664Z,1.25
2023-02-09T03:38:54.361Z,0.70
2023-02-09T03:41:21.272Z,0.95
2023-02-09T03:44:06.392Z,0.77
2023-02-09T03:46:33.671Z,0.73
2023-02-09T03:49:00.405Z,0.70
2023-02-09T03:51:27.067Z,0.85
2023-02-09T03:53:53.737Z,0.88
2023-02-09T03:56:24.863Z,0.98
2023-02-09T03:58:52.168Z,1.30
2023-02-09T04:01:21.940Z,1.27
2023-02-09T04:03:48.852Z,1.10
2023-02-09T04:06:15.550Z,1.20
2023-02-09T04:08:43.429Z,0.90
2023-02-09T04:11:10.398Z,0.80
2023-02-09T04:13:37.079Z,1.10
2023-02-09T04:16:04.021Z,1.33
2023-02-09T04:18:30.677Z,1.02
2023-02-09T04:20:57.464Z,1.50
2023-02-09T04:23:24.133Z,0.93
2023-02-09T04:25:50.804Z,1.20
2023-02-09T04:28:17.798Z,0.90
2023-02-09T04:30:44.890Z,1.17
2023-02-09T04:33:11.963Z,0.93
2023-02-09T04:35:38.928Z,1.90
2023-02-09T04:38:05.672Z,1.02
2023-02-09T04:40:32.471Z,1.60
2023-02-09T04:42:59.242Z,0.88
2023-02-09T04:45:26.100Z,1.45
2023-02-09T04:47:52.962Z,1.10
2023-02-09T04:50:19.767Z,1.58
2023-02-09T04:52:46.448Z,0.73
2023-02-09T04:55:13.082Z,0.98
2023-02-09T04:57:58.604Z,1.42
2023-02-09T05:00:25.347Z,0.98
2023-02-09T05:02:52.114Z,1.10
2023-02-09T05:05:19.701Z,0.80
2023-02-09T05:07:46.744Z,0.90
2023-02-09T05:10:13.430Z,1.08
2023-02-09T05:12:40.870Z,0.80
2023-02-09T05:15:08.238Z,1.08
2023-02-09T05:17:35.020Z,1.60
2023-02-09T05:20:05.694Z,2.35
2023-02-09T05:22:32.391Z,1.20
2023-02-09T05:24:59.187Z,1.20
2023-02-09T05:27:25.906Z,1.02
2023-02-09T05:29:52.700Z,0.68
2023-02-09T05:32:19.372Z,1.80
2023-02-09T05:34:46.690Z,1.30
2023-02-09T05:37:13.467Z,1.40
2023-02-09T05:39:40.279Z,1.45
2023-02-09T05:42:16.227Z,1.50
2023-02-09T05:44:48.418Z,1.63
2023-02-09T05:47:18.302Z,0.90
2023-02-09T05:49:45.595Z,1.75
2023-02-09T05:52:13.440Z,1.65
2023-02-09T05:54:40.536Z,0.88
2023-02-09T05:57:07.892Z,1.25
2023-02-09T05:59:34.719Z,1.10
2023-02-09T06:02:01.769Z,1.05
2023-02-09T06:04:30.873Z,0.43
2023-02-09T06:06:58.773Z,1.50
2023-02-09T06:09:25.923Z,0.80
2023-02-09T06:11:53.128Z,1.23
2023-02-09T06:14:20.073Z,1.40
2023-02-09T06:16:46.954Z,1.20
2023-02-09T06:19:19.727Z,1.63
2023-02-09T06:21:47.112Z,0.93
2023-02-09T06:24:14.856Z,1.05
2023-02-09T06:26:41.988Z,1.40
2023-02-09T06:29:09.379Z,0.95
2023-02-09T06:31:41.161Z,0.60
2023-02-09T06:34:09.960Z,1.75
2023-02-09T06:36:36.653Z,2.88
2023-02-09T06:39:08.161Z,3.38
2023-02-09T06:41:38.043Z,2.05
2023-02-09T06:44:05.258Z,1.00
2023-02-09T06:46:32.016Z,1.63
2023-02-09T06:48:59.585Z,1.05
2023-02-09T06:51:26.521Z,1.00
2023-02-09T06:53:54.470Z,1.27
2023-02-09T06:56:21.398Z,1.25
2023-02-09T06:58:48.191Z,0.90
2023-02-09T07:01:16.151Z,1.15
2023-02-09T07:03:44.861Z,0.90
2023-02-09T07:06:17.836Z,1.45
2023-02-09T07:08:45.583Z,0.90
2023-02-09T07:11:15.726Z,1.33
2023-02-09T07:13:43.033Z,1.00
2023-02-09T07:16:11.508Z,1.45
2023-02-09T07:18:39.036Z,1.00
2023-02-09T07:21:08.677Z,2.80
2023-02-09T07:23:36.021Z,1.70
2023-02-09T07:26:09.567Z,1.23
2023-02-09T07:28:36.763Z,1.47
2023-02-09T07:31:06.508Z,2.13
2023-02-09T07:33:34.552Z,1.33
2023-02-09T07:36:08.064Z,2.17
2023-02-09T07:38:35.505Z,1.40
2023-02-09T07:41:07.090Z,1.70
2023-02-09T07:43:34.189Z,2.73
2023-02-09T07:46:05.693Z,1.65
2023-02-09T07:48:34.800Z,1.77
2023-02-09T07:51:01.859Z,2.40
2023-02-09T07:53:29.588Z,2.10
2023-02-09T07:55:56.299Z,2.92
2023-02-09T07:58:23.359Z,2.90
2023-02-09T08:00:51.398Z,2.60
2023-02-09T08:03:20.726Z,2.20
2023-02-09T08:06:04.675Z,3.95
2023-02-09T08:08:31.360Z,3.53
2023-02-09T08:11:00.294Z,2.58
2023-02-09T08:13:31.152Z,3.33
2023-02-09T08:16:02.906Z,3.28
2023-02-09T08:18:34.967Z,2.53
2023-02-09T08:21:03.741Z,3.10
2023-02-09T08:23:35.479Z,2.88
2023-02-09T08:26:12.832Z,2.85
2023-02-09T08:28:44.977Z,3.08
2023-02-09T08:31:19.467Z,3.58
2023-02-09T08:33:48.201Z,3.42
2023-02-09T08:36:16.146Z,1.92
2023-02-09T08:38:43.176Z,2.22
2023-02-09T08:41:12.094Z,2.30
2023-02-09T08:43:40.135Z,1.65
2023-02-09T08:46:12.635Z,1.77
2023-02-09T08:48:43.201Z,1.00
2023-02-09T08:51:11.290Z,3.88
2023-02-09T08:53:38.083Z,2.25
2023-02-09T08:56:05.185Z,1.85
2023-02-09T08:58:33.320Z,3.03
2023-02-09T09:01:00.472Z,2.97
2023-02-09T09:03:31.368Z,1.80
2023-02-09T09:05:59.723Z,2.73
2023-02-09T09:08:26.641Z,3.30
2023-02-09T09:10:53.349Z,5.28
2023-02-09T09:13:20.587Z,1.88
2023-02-09T09:15:47.713Z,2.53
2023-02-09T09:18:14.861Z,1.95
2023-02-09T09:20:42.343Z,2.45
2023-02-09T09:23:09.821Z,2.20
2023-02-09T09:25:41.354Z,2.00
2023-02-09T09:28:09.125Z,2.65
2023-02-09T09:30:36.667Z,2.38
2023-02-09T09:33:06.636Z,1.95
2023-02-09T09:35:33.631Z,2.80
2023-02-09T09:38:00.852Z,1.40
2023-02-09T09:40:33.629Z,1.60
2023-02-09T09:43:10.291Z,1.73
2023-02-09T09:45:39.325Z,2.70
2023-02-09T09:48:13.799Z,1.95
2023-02-09T09:50:43.418Z,1.90
2023-02-09T09:53:25.190Z,2.25
2023-02-09T09:55:58.002Z,1.88
2023-02-09T09:58:25.063Z,2.85
2023-02-09T10:00:52.113Z,2.45
2023-02-09T10:03:21.869Z,2.50
2023-02-09T10:05:52.521Z,2.47
2023-02-09T10:08:36.900Z,2.97
2023-02-09T10:11:13.282Z,2.03
2023-02-09T10:13:41.231Z,2.17
2023-02-09T10:16:29.848Z,2.00
2023-02-09T10:18:59.724Z,2.28
2023-02-09T10:21:30.444Z,1.92
2023-02-09T10:24:00.228Z,2.10
2023-02-09T10:26:40.443Z,2.58
2023-02-09T10:29:13.138Z,2.33
2023-02-09T10:31:47.891Z,3.42
2023-02-09T10:34:18.425Z,2.78
2023-02-09T10:36:52.366Z,3.03
2023-02-09T10:39:20.689Z,2.55
2023-02-09T10:41:52.189Z,2.47
2023-02-09T10:44:36.168Z,2.70
2023-02-09T10:47:08.775Z,2.78
2023-02-09T10:49:39.770Z,2.90
2023-02-09T10:52:07.438Z,1.98
2023-02-09T10:54:34.205Z,2.28
2023-02-09T10:57:02.198Z,3.03
2023-02-09T10:59:30.290Z,3.10
2023-02-09T11:02:03.585Z,2.58
2023-02-09T11:04:38.064Z,2.80
2023-02-09T11:07:13.097Z,2.47
2023-02-09T11:09:47.307Z,2.38
2023-02-09T11:12:14.447Z,2.97
2023-02-09T11:14:45.572Z,3.10
2023-02-09T11:17:31.680Z,3.07
2023-02-09T11:20:13.535Z,3.03
2023-02-09T11:22:53.643Z,3.28
2023-02-09T11:25:49.466Z,2.80
2023-02-09T11:28:33.139Z,3.05
2023-02-09T11:31:34.040Z,3.55
2023-02-09T11:34:42.503Z,2.22
2023-02-09T11:37:30.447Z,3.35
2023-02-09T11:40:25.224Z,3.00
2023-02-09T11:43:15.537Z,2.97
2023-02-09T11:45:55.170Z,2.63
2023-02-09T11:48:25.046Z,3.63
2023-02-09T11:51:19.053Z,4.20
2023-02-09T11:54:07.948Z,3.35
2023-02-09T11:56:46.252Z,3.85
2023-02-09T11:59:24.086Z,3.03
2023-02-09T12:02:10.456Z,3.10
2023-02-09T12:04:58.518Z,3.07
2023-02-09T12:07:37.801Z,2.95
2023-02-09T12:10:34.434Z,3.10
2023-02-09T12:13:28.905Z,3.33
2023-02-09T12:16:07.618Z,3.30
2023-02-09T12:18:35.884Z,3.33
2023-02-09T12:21:07.618Z,3.15
2023-02-09T12:23:38.464Z,3.58
2023-02-09T12:26:11.192Z,2.85
2023-02-09T12:28:47.949Z,3.50
2023-02-09T12:31:22.274Z,3.15
2023-02-09T12:33:48.921Z,3.28
2023-02-09T12:36:17.003Z,3.30
2023-02-09T12:38:57.080Z,2.92
2023-02-09T12:41:45.668Z,2.65
2023-02-09T12:44:13.164Z,3.60
2023-02-09T12:46:48.425Z,3.20
2023-02-09T12:49:15.793Z,3.17
2023-02-09T12:51:49.524Z,3.63
2023-02-09T12:54:28.200Z,2.85
2023-02-09T12:56:55.662Z,2.47
2023-02-09T12:59:27.187Z,3.40
2023-02-09T13:02:06.019Z,3.05
2023-02-09T13:04:41.076Z,2.90
2023-02-09T13:07:21.288Z,3.10
2023-02-09T13:09:53.904Z,3.20
2023-02-09T13:12:30.838Z,3.38
2023-02-09T13:15:00.860Z,3.45
2023-02-09T13:17:48.811Z,3.35
2023-02-09T13:20:52.009Z,3.30
2023-02-09T13:23:35.689Z,3.20
2023-02-09T13:26:22.695Z,3.63
2023-02-09T13:29:19.206Z,3.28
2023-02-09T13:31:58.060Z,3.80
2023-02-09T13:34:52.700Z,3.35
2023-02-09T13:37:57.887Z,2.90
2023-02-09T13:40:32.335Z,3.15
2023-02-09T13:43:15.803Z,3.17
2023-02-09T13:45:53.896Z,3.13
2023-02-09T13:48:25.140Z,2.83
2023-02-09T13:50:55.170Z,3.15
2023-02-09T13:53:27.385Z,3.33
2023-02-09T13:55:56.000Z,3.75
2023-02-09T13:58:30.268Z,2.75
2023-02-09T14:01:00.542Z,3.28
2023-02-09T14:03:58.225Z,2.55
2023-02-09T14:06:38.225Z,2.83
2023-02-09T14:09:13.631Z,2.20
2023-02-09T14:11:47.888Z,2.65
2023-02-09T14:14:55.530Z,2.78
2023-02-09T14:17:34.894Z,3.30
2023-02-09T14:20:01.838Z,2.90
2023-02-09T14:22:39.714Z,3.33
2023-02-09T14:25:22.501Z,2.28
2023-02-09T14:27:49.667Z,2.95
2023-02-09T14:30:25.742Z,2.40
2023-02-09T14:32:57.764Z,2.53
2023-02-09T14:35:30.778Z,2.67
2023-02-09T14:38:02.682Z,2.57
2023-02-09T14:40:33.896Z,2.83
2023-02-09T14:43:13.580Z,2.28
2023-02-09T14:45:49.130Z,2.50
2023-02-09T14:48:25.010Z,2.75
2023-02-09T14:50:59.187Z,2.72
2023-02-09T14:53:29.977Z,3.15
2023-02-09T14:55:57.902Z,2.85
2023-02-09T14:58:27.230Z,3.08
2023-02-09T15:00:56.101Z,3.03
2023-02-09T15:03:23.056Z,2.83
2023-02-09T15:05:52.082Z,2.63
2023-02-09T15:08:23.230Z,2.30
2023-02-09T15:11:42.950Z,3.20
2023-02-09T15:14:13.748Z,2.35
2023-02-09T15:16:44.855Z,2.70
2023-02-09T15:19:19.065Z,2.92
2023-02-09T15:22:01.867Z,3.97
2023-02-09T15:24:33.079Z,2.60
2023-02-09T15:27:02.039Z,2.90
2023-02-09T15:29:28.861Z,3.35
2023-02-09T15:32:01.626Z,2.65
2023-02-09T15:34:30.697Z,3.08
2023-02-09T15:37:02.818Z,2.28
2023-02-09T15:39:34.965Z,2.92
2023-02-09T15:42:34.166Z,3.03
2023-02-09T15:45:40.536Z,2.90
2023-02-09T15:48:12.885Z,3.13
2023-02-09T15:50:42.980Z,2.10
2023-02-09T15:53:19.251Z,2.15
2023-02-09T15:55:46.421Z,3.25
2023-02-09T15:58:20.531Z,2.95
2023-02-09T16:00:47.552Z,3.03
2023-02-09T16:03:20.441Z,2.47
2023-02-09T16:05:54.963Z,2.78
2023-02-09T16:08:27.376Z,2.60
2023-02-09T16:10:56.721Z,2.17
2023-02-09T16:13:23.489Z,2.63
2023-02-09T16:15:52.203Z,3.88
2023-02-09T16:18:19.351Z,2.90
2023-02-09T16:20:48.148Z,2.47
2023-02-09T16:23:20.820Z,2.25
2023-02-09T16:25:50.595Z,3.30
2023-02-09T16:28:17.904Z,2.42
2023-02-09T16:30:53.888Z,3.17
2023-02-09T16:33:22.250Z,2.75
2023-02-09T16:35:56.962Z,2.43
2023-02-09T16:38:25.760Z,2.78
2023-02-09T16:40:54.014Z,2.38
2023-02-09T16:43:21.216Z,2.40
2023-02-09T16:46:02.448Z,2.70
2023-02-09T16:48:32.199Z,3.10
2023-02-09T16:50:59.241Z,2.50
2023-02-09T16:53:39.264Z,2.70
2023-02-09T16:56:15.462Z,2.75
2023-02-09T16:58:43.418Z,2.17
2023-02-09T17:01:19.958Z,2.17
2023-02-09T17:03:49.729Z,1.67
2023-02-09T17:06:20.072Z,2.88
2023-02-09T17:08:47.252Z,1.40
2023-02-09T17:11:22.333Z,2.53
2023-02-09T17:13:51.671Z,2.47
2023-02-09T17:16:34.687Z,2.42
2023-02-09T17:19:06.610Z,2.38
2023-02-09T17:21:39.780Z,2.35
2023-02-09T17:24:13.804Z,2.60
2023-02-09T17:26:40.742Z,2.03
2023-02-09T17:29:07.980Z,1.52
2023-02-09T17:31:50.773Z,1.50
2023-02-09T17:34:22.272Z,2.20
2023-02-09T17:36:49.041Z,2.78
2023-02-09T17:39:18.678Z,2.05
2023-02-09T17:41:49.951Z,2.42
2023-02-09T17:44:28.894Z,2.35
2023-02-09T17:47:07.053Z,1.80
2023-02-09T17:49:34.216Z,2.50
2023-02-09T17:52:01.133Z,2.35
2023-02-09T17:54:27.890Z,1.65
2023-02-09T17:56:54.676Z,2.08
2023-02-09T17:59:21.521Z,2.35
2023-02-09T18:01:57.735Z,2.05
2023-02-09T18:04:30.141Z,1.90
2023-02-09T18:06:59.655Z,2.25
2023-02-09T18:09:27.254Z,1.75
2023-02-09T18:12:02.693Z,2.03
2023-02-09T18:14:38.374Z,2.20
2023-02-09T18:17:08.175Z,1.55
2023-02-09T18:19:35.798Z,1.95
2023-02-09T18:22:03.549Z,2.10
2023-02-09T18:24:33.717Z,2.90
2023-02-09T18:27:00.926Z,1.65
2023-02-09T18:29:30.580Z,2.42
2023-02-09T18:31:58.801Z,2.95
2023-02-09T18:34:25.968Z,2.70
2023-02-09T18:36:52.790Z,2.63
2023-02-09T18:39:19.561Z,2.20
2023-02-09T18:41:53.826Z,2.80
2023-02-09T18:44:24.509Z,3.70
2023-02-09T18:46:54.730Z,2.88
2023-02-09T18:49:24.565Z,1.80
2023-02-09T18:51:52.169Z,2.03
2023-02-09T18:54:20.367Z,2.05
2023-02-09T18:56:51.605Z,2.63
2023-02-09T18:59:18.321Z,2.05
2023-02-09T19:01:47.186Z,1.95
2023-02-09T19:04:19.397Z,2.03
2023-02-09T19:06:46.382Z,1.60
2023-02-09T19:09:14.018Z,2.67
2023-02-09T19:11:40.892Z,2.03
2023-02-09T19:14:27.097Z,2.47
2023-02-09T19:16:53.810Z,2.80
2023-02-09T19:19:22.670Z,2.53
2023-02-09T19:21:54.694Z,2.95
2023-02-09T19:24:26.128Z,2.60
2023-02-09T19:26:53.334Z,3.65
2023-02-09T19:29:20.123Z,2.75
2023-02-09T19:31:52.057Z,2.53
2023-02-09T19:34:21.395Z,2.60
2023-02-09T19:36:52.858Z,2.58
2023-02-09T19:39:19.961Z,2.33
2023-02-09T19:41:49.004Z,1.98
2023-02-09T19:44:15.890Z,3.08
2023-02-09T19:46:45.211Z,2.15
2023-02-09T19:49:12.795Z,2.08
2023-02-09T19:51:43.039Z,3.08
2023-02-09T19:54:09.776Z,1.83
2023-02-09T19:56:42.019Z,2.05
2023-02-09T19:59:10.242Z,1.73
2023-02-09T20:01:38.818Z,3.43
2023-02-09T20:04:06.596Z,3.40
2023-02-09T20:06:36.136Z,2.25
2023-02-09T20:09:05.655Z,2.55
2023-02-09T20:11:35.264Z,2.00
2023-02-09T20:14:02.039Z,1.50
2023-02-09T20:16:28.801Z,1.92
2023-02-09T20:18:56.124Z,2.85
2023-02-09T20:21:26.414Z,1.50
2023-02-09T20:23:57.011Z,2.47
2023-02-09T20:26:33.306Z,2.17
2023-02-09T20:29:01.939Z,1.88
2023-02-09T20:31:39.489Z,2.85
2023-02-09T20:34:08.551Z,2.80
2023-02-09T20:36:42.457Z,2.17
2023-02-09T20:39:15.561Z,2.03
2023-02-09T20:42:04.200Z,2.72
2023-02-09T20:44:49.853Z,2.63
2023-02-09T20:47:17.932Z,2.22
2023-02-09T20:49:45.222Z,2.10
2023-02-09T20:52:12.133Z,3.00
2023-02-09T20:54:43.206Z,1.80
2023-02-09T20:57:09.904Z,2.17
2023-02-09T20:59:36.648Z,1.85
2023-02-09T21:02:09.102Z,2.20
2023-02-09T21:04:39.770Z,2.42
2023-02-09T21:07:06.417Z,1.10
2023-02-09T21:09:33.342Z,1.23
2023-02-09T21:12:00.098Z,1.73
2023-02-09T21:14:27.677Z,2.13
2023-02-09T21:17:01.073Z,1.75
2023-02-09T21:22:21.794Z,2.03
2023-02-09T21:27:39.172Z,1.42
2023-02-09T21:30:07.768Z,1.88
2023-02-09T21:32:37.096Z,1.05
2023-02-09T21:35:05.260Z,2.28
2023-02-09T21:37:32.543Z,1.85
2023-02-09T21:40:02.883Z,1.60
2023-02-09T21:42:32.613Z,2.10
2023-02-09T21:44:59.800Z,1.60
2023-02-09T21:47:28.645Z,2.47
2023-02-09T21:49:58.655Z,2.10
2023-02-09T21:52:27.783Z,1.30
2023-02-09T21:54:58.739Z,2.35
2023-02-09T21:57:26.192Z,2.25
2023-02-09T21:59:53.313Z,1.40
2023-02-09T22:02:22.328Z,2.03
2023-02-09T22:04:50.422Z,2.83
2023-02-09T22:07:17.094Z,1.90
2023-02-09T22:09:44.691Z,1.95
2023-02-09T22:12:11.457Z,1.17
2023-02-09T22:14:43.410Z,2.10
2023-02-09T22:17:10.078Z,1.20
2023-02-09T22:19:43.100Z,1.10
2023-02-09T22:22:13.229Z,1.83
2023-02-09T22:24:45.172Z,1.48
2023-02-09T22:27:11.825Z,1.08
2023-02-09T22:29:38.595Z,2.00
2023-02-09T22:32:05.369Z,1.73
2023-02-09T22:34:35.384Z,1.67
2023-02-09T22:37:02.346Z,1.23
2023-02-09T22:39:34.534Z,1.40
2023-02-09T22:42:01.308Z,1.88
2023-02-09T22:44:33.822Z,1.13
2023-02-09T22:47:03.290Z,1.90
2023-02-09T22:49:30.049Z,1.27
2023-02-09T22:51:56.745Z,1.52
2023-02-09T22:54:23.552Z,1.75
2023-02-09T22:56:50.305Z,1.23
2023-02-09T22:59:17.055Z,2.00
2023-02-09T23:01:46.853Z,1.20
2023-02-09T23:04:13.793Z,1.35
2023-02-09T23:06:40.620Z,1.60
2023-02-09T23:09:11.087Z,1.83
2023-02-09T23:11:37.802Z,1.17
2023-02-09T23:14:11.338Z,1.33
2023-02-09T23:16:39.603Z,1.50
2023-02-09T23:19:11.104Z,0.93
2023-02-09T23:21:40.749Z,1.55
2023-02-09T23:24:13.193Z,1.48
2023-02-09T23:26:40.284Z,1.47
2023-02-09T23:29:10.661Z,1.83
2023-02-09T23:31:38.098Z,1.63
2023-02-09T23:34:08.322Z,1.42
2023-02-09T23:36:35.512Z,1.83
2023-02-09T23:41:56.433Z,1.65
2023-02-09T23:44:27.897Z,1.60
2023-02-09T23:47:00.492Z,1.35
2023-02-09T23:49:27.257Z,1.25
2023-02-09T23:51:53.984Z,2.03
2023-02-09T23:57:16.084Z,2.10
2023-02-09T23:59:45.425Z,1.50
